Taunton 2W

41° 53' 56"N, 71° 08' 19"W, Elevation 50 ft.
Eastern Time

Hourly observations for the last 72 hours

Date Time Temperature (°F) Humi-
dity

(%)
Wind
(mph)
Pressure Rain (in) Sun
(W/m2)
UV ET
(in)
Air Dew 6 Hour 1 Hr 3 Hr 6 Hr Day
Alt
(in)
Sea
Level

(mb)
Max Min
21 02:00 68.2 67.0 76.4 68.2 96 Calm 29.80 1009.1 0.00 0 0.0 0.000
21 01:00 70.0 68.8 96 SW 0 G 1 29.80 1009.3 0.00 0 0.0 0.000
21 00:00 71.7 70.2 95 SW 0 G 2 29.82 1009.8 0.00 0 0.0 0.176
20 23:00 73.3 71.5 94 SW 0 G 2 29.82 1009.8 0.00 0 0.0 0.176
20 22:00 75.1 72.3 91 SW 0 G 1 29.81 1009.7 0.00 0 0.0 0.176
20 21:00 75.8 72.3 89 SSW 2 G 4 29.82 1009.9 0.00 0 0.0 0.175
20 20:00 76.4 71.2 90.8 76.2 84 SSW 2 G 5 29.81 1009.5 0.00 5 0.0 0.174
20 19:00 77.7 70.3 78 SSW 5 G 9 29.82 1009.7 0.00 35 0.0 0.170
20 18:00 83.1 71.9 69 S 4 G 10 29.81 1009.7 0.00 76 0.0 0.164
20 17:00 85.4 72.3 65 SSW 5 G 9 29.83 1010.0 0.00 90 0.9 0.155
20 16:00 87.9 74.2 64 SSW 7 G 11 29.83 1010.2 0.00 295 2.7 0.141
20 15:00 90.7 71.8 54 SSW 6 G 12 29.84 1010.6 0.00 823 6.3 0.123
20 14:00 89.8 72.6 90.0 76.1 57 SW 4 G 8 29.86 1011.2 0.00 501 6.1 0.104
20 13:00 89.2 72.5 58 SW 5 G 11 29.89 1012.1 0.00 919 7.2 0.080
20 12:00 88.1 72.0 59 S 4 G 9 29.91 1012.8 0.00 895 8.0 0.057
20 11:00 86.3 72.7 64 WSW 2 G 9 29.92 1013.2 0.00 782 6.7 0.037
20 10:00 84.7 71.2 64 WNW 4 G 8 29.93 1013.6 0.00 617 4.2 0.021
20 09:00 81.7 73.0 75 WNW 2 G 4 29.93 1013.6 0.00 555 3.0 0.009
20 08:00 76.1 70.9 76.2 63.4 84 WNW 1 G 3 29.95 1014.1 0.00 288 1.3 0.002
20 07:00 68.3 67.1 96 Calm 29.93 1013.6 0.00 195 0.0 0.000
20 06:00 63.6 62.7 97 Calm 29.92 1013.2 0.00 19 0.0 0.000
20 05:00 64.0 63.1 97 WSW 0 G 1 29.92 1013.3 0.00 0 0.0 0.000
20 04:00 65.1 64.2 97 Calm 29.92 1013.3 0.00 0 0.0 0.000
20 03:00 66.8 65.9 97 Calm 29.93 1013.5 0.00 0 0.0 0.000
20 02:00 68.3 67.4 79.3 68.2 97 WSW 0 G 2 29.93 1013.7 0.00 0 0.0 0.000
20 01:00 70.2 69.0 96 Calm 29.94 1013.9 0.00 0 0.0 0.000
20 00:00 72.8 71.3 95 WSW 2 G 3 29.93 1013.7 0.00 0 0.0 0.149
19 23:00 74.3 72.1 93 SSW 1 G 4 29.94 1014.1 0.00 0 0.0 0.149
19 22:00 75.3 72.8 92 WSW 1 G 5 29.94 1014.1 0.00 0 0.0 0.148
19 21:00 76.7 73.5 90 SSW 3 G 8 29.92 1013.4 0.00 0 0.0 0.147
19 20:00 79.3 74.4 87.9 79.3 85 S 5 G 10 29.92 1013.1 0.00 7 0.0 0.145
19 19:00 82.4 76.0 81 S 3 G 8 29.90 1012.6 0.00 104 0.0 0.141
19 18:00 83.4 75.8 78 SSW 5 G 11 29.90 1012.5 0.00 81 0.7 0.131
19 17:00 85.4 77.0 76 S 4 G 11 29.90 1012.5 0.00 172 1.6 0.121
19 16:00 87.2 77.1 72 SSW 8 G 18 29.91 1012.9 0.00 622 4.0 0.104
19 15:00 86.8 76.7 72 S 7 G 14 29.92 1013.2 0.00 779 3.7 0.089
19 14:00 87.0 77.7 87.7 74.5 74 S 8 G 15 29.94 1013.9 0.00 346 4.7 0.070
19 13:00 86.5 78.0 76 SSW 5 G 12 29.96 1014.5 0.00 1042 8.5 0.046
19 12:00 85.2 77.6 78 SSW 4 G 8 29.98 1015.2 0.00 1013 7.1 0.024
19 11:00 79.8 75.2 86 SSW 2 G 8 30.00 1016.1 0.00 424 4.7 0.015
19 10:00 77.3 73.8 89 S 5 G 8 30.01 1016.2 0.00 287 2.2 0.009
19 09:00 76.5 73.7 91 SW 5 G 10 30.01 1016.4 0.00 200 1.3 0.003
19 08:00 74.5 72.7 74.5 72.1 94 SW 1 G 4 30.02 1016.6 0.00 104 0.7 0.001
19 07:00 73.9 72.1 94 SW 3 G 8 30.02 1016.7 0.00 63 0.0 0.000
19 06:00 72.2 71.0 96 S 0 G 3 30.02 1016.6 0.00 21 0.0 0.000
19 05:00 72.6 71.1 95 SW 1 G 4 30.02 1016.6 0.00 0 0.0 0.000
19 04:00 73.0 71.2 94 SW 1 G 5 30.01 1016.4 0.00 0 0.0 0.000
19 03:00 73.2 71.1 93 SSW 4 G 10 30.02 1016.5 0.00 0 0.0 0.000
19 02:00 72.9 70.8 76.1 72.5 93 S 4 G 8 30.02 1016.6 0.00 0 0.0 0.000
19 01:00 72.8 71.0 94 SW 3 G 8 30.04 1017.3 0.00 0 0.0 0.000
19 00:00 73.8 71.6 93 SSW 4 G 8 30.05 1017.5 0.00 0 0.0 0.156
18 23:00 74.3 71.5 91 S 3 G 5 30.05 1017.7 0.00 0 0.0 0.155
18 22:00 74.3 70.8 89 WSW 3 G 5 30.06 1017.8 0.00 0 0.0 0.154
18 21:00 75.8 71.3 86 SSW 7 G 11 30.04 1017.4 0.00 0 0.0 0.153
18 20:00 76.1 70.9 85.8 76.1 84 SSW 4 G 8 30.03 1016.9 0.00 0 0.0 0.152
18 19:00 76.4 70.9 83 SW 4 G 14 30.01 1016.4 0.00 23 0.0 0.150
18 18:00 78.0 71.7 81 S 5 G 13 30.03 1017.0 0.00 42 0.0 0.146
18 17:00 80.8 70.9 72 S 9 G 15 30.02 1016.5 0.00 367 1.8 0.136
18 16:00 82.8 71.2 68 SSW 6 G 11 30.02 1016.5 0.00 174 1.6 0.118
18 15:00 85.3 73.6 68 S 6 G 14 30.03 1016.8 0.00 867 6.3 0.094
18 14:00 83.9 72.2 85.0 72.7 68 SW 6 G 10 30.04 1017.4 0.00 355 3.9 0.077
18 13:00 83.5 72.3 69 S 5 G 10 30.07 1018.2 0.00 1123 6.0 0.062
18 12:00 81.0 72.3 75 W 3 G 6 30.08 1018.8 0.00 330 5.4 0.047
18 11:00 81.6 72.5 74 S 5 G 10 30.09 1019.1 0.00 907 4.9 0.028
18 10:00 79.4 71.9 78 SSE 6 G 12 30.09 1019.2 0.00 780 4.5 0.015
18 09:00 77.2 72.7 86 SSE 5 G 7 30.11 1019.6 0.00 207 2.0 0.004
18 08:00 72.7 70.9 72.7 62.7 94 W 2 G 4 30.10 1019.4 0.00 367 1.2 0.001
18 07:00 69.1 68.5 98 Calm 30.09 1019.1 0.00 67 0.0 0.000
18 06:00 66.6 66.0 98 SSE 0 G 1 30.09 1019.0 0.00 14 0.0 0.000
18 05:00 65.0 64.4 98 SSE 0 G 1 30.08 1018.7 0.00 0 0.0 0.000
18 04:00 64.4 63.8 98 SSE 0 G 1 30.08 1018.8 0.00 0 0.0 0.000
18 03:00 62.8 62.2 98 SSE 0 G 1 30.08 1018.5 0.00 0 0.0 0.000

Data generated by WxSolution Version 1.9.0.7, Build 2017.01.18.